Time;durP1;ratioP1;P1;durP2;ratioP2;P2;SDS_P1;SDS_P2;PMS_P1;PMS_P2;Temp;Humidity;BMP_temperature;BMP_pressure;BME280_temperature;BME280_humidity;BME280_pressure;Samples;Min_cycle;Max_cycle;Signal;HPM_P1;HPM_P2
2022/12/30 00:01:00;;;;;;;0.70;0.65;;;17.40;68.10;;;;;;5075820;28;20044;-42
2022/12/30 00:03:25;;;;;;;0.75;0.73;;;17.40;68.20;;;;;;5068349;28;20033;-42
2022/12/30 00:05:51;;;;;;;0.70;0.68;;;17.40;68.00;;;;;;5076832;28;20473;-42
2022/12/30 00:11:01;;;;;;;0.80;0.80;;;17.30;68.20;;;;;;5070780;28;20612;-42
2022/12/30 00:34:18;;;;;;;1.27;0.50;;;17.30;68.50;;;;;;5066675;28;20458;-43
2022/12/30 00:36:44;;;;;;;0.57;0.57;;;17.30;68.40;;;;;;5074757;28;20101;-42
2022/12/30 00:39:10;;;;;;;0.60;0.52;;;17.30;68.40;;;;;;5065573;28;20068;-41
2022/12/30 00:44:19;;;;;;;0.50;0.50;;;17.30;68.40;;;;;;5077796;28;20143;-42
2022/12/30 00:46:45;;;;;;;0.77;0.55;;;17.30;68.50;;;;;;5075661;28;20548;-43
2022/12/30 00:57:24;;;;;;;0.60;0.60;;;17.30;68.60;;;;;;5077037;28;20082;-42
2022/12/30 00:59:50;;;;;;;0.30;0.30;;;17.30;68.40;;;;;;5073769;28;20501;-42
2022/12/30 01:02:15;;;;;;;0.52;0.52;;;17.30;68.20;;;;;;5075889;28;20699;-43
2022/12/30 01:04:41;;;;;;;0.60;0.60;;;17.30;68.20;;;;;;5071402;28;20429;-42
2022/12/30 01:07:07;;;;;;;0.57;0.50;;;17.30;68.20;;;;;;5073172;28;20162;-41
2022/12/30 01:09:36;;;;;;;0.45;0.45;;;17.30;68.20;;;;;;5073821;28;20047;-43
2022/12/30 01:12:08;;;;;;;0.98;0.55;;;17.20;68.40;;;;;;5071605;28;20428;-26
2022/12/30 01:14:41;;;;;;;0.73;0.50;;;17.20;68.70;;;;;;5074832;28;20052;-42
2022/12/30 01:17:08;;;;;;;0.40;0.40;;;17.20;68.50;;;;;;5073683;28;20048;-41
2022/12/30 01:19:33;;;;;;;0.60;0.60;;;17.20;68.40;;;;;;5071678;28;20052;-41
2022/12/30 01:21:59;;;;;;;0.80;0.57;;;17.30;68.20;;;;;;5073961;28;20128;-42
2022/12/30 01:24:25;;;;;;;0.50;0.50;;;17.20;68.30;;;;;;5071285;28;20087;-42
2022/12/30 01:26:50;;;;;;;0.65;0.40;;;17.30;68.40;;;;;;5073922;28;20068;-42
2022/12/30 01:29:23;;;;;;;0.60;0.50;;;17.30;68.20;;;;;;5074491;28;20087;-42
2022/12/30 01:31:49;;;;;;;0.50;0.50;;;17.30;68.20;;;;;;5077234;28;20102;-42
2022/12/30 01:34:14;;;;;;;0.50;0.40;;;17.20;68.40;;;;;;5069214;28;20044;-42
2022/12/30 01:36:40;;;;;;;0.38;0.38;;;17.20;68.40;;;;;;5074915;28;20072;-42
2022/12/30 01:39:05;;;;;;;0.65;0.60;;;17.20;68.40;;;;;;5073893;28;20126;-41
2022/12/30 01:41:31;;;;;;;0.90;0.60;;;17.10;68.50;;;;;;5073923;28;20047;-43
2022/12/30 01:43:56;;;;;;;0.52;0.43;;;17.20;68.50;;;;;;5073781;28;20098;-42
2022/12/30 01:46:28;;;;;;;0.47;0.47;;;17.20;68.30;;;;;;5073563;28;20044;-43
2022/12/30 01:48:54;;;;;;;0.50;0.40;;;17.20;68.30;;;;;;5053156;28;20059;-42
2022/12/30 01:51:26;;;;;;;0.40;0.40;;;17.20;68.40;;;;;;5069002;28;20078;-43
2022/12/30 01:53:52;;;;;;;0.50;0.50;;;17.30;68.10;;;;;;5040760;28;21952;-42
2022/12/30 01:56:37;;;;;;;0.45;0.45;;;17.20;68.40;;;;;;5054053;28;20412;-41
2022/12/30 01:59:12;;;;;;;0.40;0.40;;;17.20;68.50;;;;;;5072087;28;20036;-42
2022/12/30 02:01:37;;;;;;;0.50;0.50;;;17.20;68.20;;;;;;5054171;28;20044;-42
2022/12/30 02:04:15;;;;;;;0.50;0.50;;;17.20;68.50;;;;;;5056793;28;20059;-42
2022/12/30 02:06:51;;;;;;;0.63;0.52;;;17.10;68.60;;;;;;5073333;28;20036;-41
2022/12/30 02:09:17;;;;;;;0.30;0.30;;;17.00;69.10;;;;;;5064997;28;20051;-42
2022/12/30 02:11:43;;;;;;;0.60;0.47;;;17.00;68.70;;;;;;5071713;28;20044;-43
2022/12/30 02:14:08;;;;;;;0.35;0.35;;;16.90;68.90;;;;;;5071912;28;20044;-42
2022/12/30 02:16:56;;;;;;;0.50;0.50;;;17.10;68.90;;;;;;5063522;28;20047;-42
2022/12/30 02:19:21;;;;;;;0.47;0.47;;;17.00;69.10;;;;;;5070088;28;20511;-42
2022/12/30 02:21:56;;;;;;;0.55;0.47;;;16.90;69.20;;;;;;5072902;28;20052;-43
2022/12/30 02:24:51;;;;;;;0.47;0.47;;;16.90;69.40;;;;;;5073152;28;20148;-42
2022/12/30 02:27:29;;;;;;;0.93;0.60;;;16.80;69.80;;;;;;5052851;28;20107;-41
2022/12/30 02:30:32;;;;;;;0.60;0.60;;;16.80;69.80;;;;;;5074844;28;20528;-42
2022/12/30 02:33:22;;;;;;;0.40;0.40;;;16.70;70.10;;;;;;5025487;28;20119;-42
2022/12/30 02:35:55;;;;;;;0.70;0.60;;;16.70;70.10;;;;;;5070998;28;20461;-42
2022/12/30 02:38:42;;;;;;;0.47;0.47;;;16.70;70.20;;;;;;5074626;28;21140;-41
2022/12/30 02:46:55;;;;;;;0.68;0.60;;;16.70;70.10;;;;;;5042833;28;20051;-43
2022/12/30 02:49:21;;;;;;;0.80;0.45;;;16.70;70.00;;;;;;5076149;28;20501;-42
2022/12/30 02:54:31;;;;;;;0.95;0.40;;;16.70;70.10;;;;;;5067174;28;20047;-42
2022/12/30 02:56:56;;;;;;;0.55;0.55;;;16.80;69.80;;;;;;5070960;28;20025;-42
2022/12/30 03:05:24;;;;;;;0.50;0.50;;;16.80;69.70;;;;;;5070101;28;20128;-43
2022/12/30 03:08:06;;;;;;;0.28;0.28;;;16.80;69.70;;;;;;5074872;28;20048;-42
2022/12/30 03:13:33;;;;;;;0.75;0.55;;;16.90;69.60;;;;;;5062843;28;20590;-42
2022/12/30 03:16:08;;;;;;;0.70;0.50;;;16.80;69.50;;;;;;5061157;28;20056;-42
2022/12/30 03:18:34;;;;;;;0.52;0.52;;;16.80;69.50;;;;;;5071558;28;20405;-42
2022/12/30 03:21:00;;;;;;;0.55;0.55;;;16.90;69.30;;;;;;5073651;28;20044;-42
2022/12/30 03:28:55;;;;;;;0.85;0.50;;;16.90;69.20;;;;;;5078187;28;20512;-42
2022/12/30 03:31:20;;;;;;;0.35;0.30;;;16.70;69.90;;;;;;5055065;28;20032;-42
2022/12/30 03:33:46;;;;;;;0.75;0.40;;;16.70;70.10;;;;;;5075960;28;20511;-42
2022/12/30 03:36:13;;;;;;;1.25;0.50;;;16.80;69.80;;;;;;5073962;28;20040;-41
2022/12/30 03:38:41;;;;;;;0.80;0.80;;;16.70;69.80;;;;;;5074369;28;20044;-46
2022/12/30 03:41:06;;;;;;;0.30;0.20;;;16.80;69.50;;;;;;5075044;28;20055;-42
2022/12/30 03:43:32;;;;;;;0.60;0.52;;;16.80;69.40;;;;;;5054900;28;20056;-42
2022/12/30 03:45:58;;;;;;;0.50;0.50;;;16.80;69.30;;;;;;5055486;28;20040;-42
2022/12/30 03:48:23;;;;;;;0.50;0.50;;;16.90;69.30;;;;;;5056624;28;20095;-41
2022/12/30 03:50:49;;;;;;;0.45;0.30;;;16.80;69.40;;;;;;5073897;28;20598;-42
2022/12/30 03:53:15;;;;;;;0.80;0.50;;;16.80;69.50;;;;;;5076553;28;20097;-42
2022/12/30 03:55:40;;;;;;;0.52;0.52;;;16.80;69.70;;;;;;5074359;28;20063;-41
2022/12/30 03:58:06;;;;;;;0.60;0.50;;;16.80;69.70;;;;;;5073673;28;20040;-43
2022/12/30 04:00:32;;;;;;;0.30;0.30;;;16.80;69.60;;;;;;5074671;28;20046;-43
2022/12/30 04:02:57;;;;;;;0.30;0.30;;;16.80;69.30;;;;;;5075561;28;20513;-42
2022/12/30 04:05:23;;;;;;;1.05;0.40;;;16.80;69.30;;;;;;5074678;28;20448;-42
2022/12/30 04:07:48;;;;;;;0.70;0.70;;;16.90;69.20;;;;;;5078855;28;20032;-42
2022/12/30 04:10:14;;;;;;;0.50;0.50;;;16.80;69.40;;;;;;5078227;28;20036;-40
2022/12/30 04:12:40;;;;;;;0.60;0.55;;;16.80;69.40;;;;;;5073329;28;20568;-42
2022/12/30 04:15:06;;;;;;;0.93;0.57;;;16.70;69.60;;;;;;5073393;28;20044;-46
2022/12/30 04:17:31;;;;;;;0.60;0.47;;;16.80;69.40;;;;;;5073809;28;20044;-42
2022/12/30 04:19:57;;;;;;;0.40;0.40;;;16.80;69.40;;;;;;5075785;28;20045;-42
2022/12/30 04:22:22;;;;;;;0.60;0.50;;;16.70;69.70;;;;;;5073290;28;20048;-43
2022/12/30 04:24:48;;;;;;;0.43;0.43;;;16.70;69.70;;;;;;5075298;28;20047;-42
2022/12/30 04:27:13;;;;;;;0.40;0.38;;;16.70;70.00;;;;;;5072054;28;20051;-40
2022/12/30 04:29:39;;;;;;;0.40;0.30;;;16.80;69.80;;;;;;5075414;28;20126;-42
2022/12/30 04:32:04;;;;;;;0.40;0.40;;;16.80;69.60;;;;;;5075668;28;20051;-42
2022/12/30 04:34:30;;;;;;;0.40;0.40;;;16.70;69.70;;;;;;5074509;28;20044;-42
2022/12/30 04:36:56;;;;;;;0.40;0.32;;;16.80;69.80;;;;;;5074880;28;20318;-42
2022/12/30 04:39:21;;;;;;;0.95;0.60;;;16.70;70.00;;;;;;5074396;28;20093;-41
2022/12/30 04:41:47;;;;;;;0.40;0.38;;;16.70;69.80;;;;;;5076377;28;20186;-43
2022/12/30 04:44:13;;;;;;;0.57;0.50;;;16.70;69.90;;;;;;5071216;28;20044;-41
2022/12/30 04:46:39;;;;;;;0.70;0.70;;;16.70;69.90;;;;;;5074164;28;20036;-43
2022/12/30 04:49:04;;;;;;;0.50;0.40;;;16.60;70.00;;;;;;5072176;28;20521;-43
2022/12/30 04:51:30;;;;;;;0.77;0.47;;;16.70;70.00;;;;;;5070641;28;20036;-44
2022/12/30 04:53:55;;;;;;;0.77;0.52;;;16.70;70.00;;;;;;5076884;28;20036;-42
2022/12/30 04:56:21;;;;;;;0.50;0.40;;;16.60;70.00;;;;;;5076249;28;20035;-41
2022/12/30 04:58:46;;;;;;;0.70;0.50;;;16.60;70.00;;;;;;5076700;28;20052;-42
2022/12/30 05:01:12;;;;;;;0.65;0.47;;;16.70;70.10;;;;;;5071668;28;20046;-43
2022/12/30 05:03:38;;;;;;;0.50;0.43;;;16.60;70.20;;;;;;5072633;28;20052;-43
2022/12/30 05:06:03;;;;;;;0.30;0.30;;;16.60;70.50;;;;;;5074848;28;20044;-43
2022/12/30 05:08:29;;;;;;;0.60;0.35;;;16.50;70.70;;;;;;5070107;28;20051;-42
2022/12/30 05:10:54;;;;;;;0.50;0.50;;;16.60;70.70;;;;;;5074514;28;20497;-42
2022/12/30 05:13:20;;;;;;;0.32;0.30;;;16.60;70.30;;;;;;5055291;28;20044;-43
2022/12/30 05:15:45;;;;;;;0.95;0.55;;;16.80;69.90;;;;;;5073304;28;20036;-42
2022/12/30 05:18:11;;;;;;;0.40;0.30;;;16.70;69.90;;;;;;5075833;28;20505;-42
2022/12/30 05:20:37;;;;;;;0.30;0.30;;;16.60;70.30;;;;;;5073910;28;20115;-42
2022/12/30 05:23:02;;;;;;;0.40;0.38;;;16.60;71.00;;;;;;5074608;28;20063;-42
2022/12/30 05:28:12;;;;;;;0.75;0.50;;;16.60;70.30;;;;;;5070995;28;20047;-43
2022/12/30 05:30:37;;;;;;;0.50;0.40;;;16.60;70.30;;;;;;5074132;28;20048;-44
2022/12/30 05:33:03;;;;;;;0.50;0.50;;;16.70;70.00;;;;;;5068321;28;20037;-42
2022/12/30 05:35:29;;;;;;;2.00;0.40;;;16.70;69.70;;;;;;5072809;28;20104;-41
2022/12/30 05:37:54;;;;;;;0.32;0.25;;;16.70;70.00;;;;;;5072781;28;20036;-43
2022/12/30 05:40:20;;;;;;;0.32;0.30;;;16.70;69.90;;;;;;5073701;28;20032;-41
2022/12/30 05:42:46;;;;;;;0.45;0.43;;;16.60;70.10;;;;;;5071596;28;20056;-42
2022/12/30 05:45:11;;;;;;;0.40;0.40;;;16.60;70.10;;;;;;5078196;28;20117;-42
2022/12/30 05:47:37;;;;;;;0.50;0.50;;;16.60;70.20;;;;;;5071427;28;20063;-42
2022/12/30 05:50:03;;;;;;;0.47;0.40;;;16.60;70.20;;;;;;5072529;28;20048;-41
2022/12/30 05:52:29;;;;;;;0.50;0.40;;;16.60;70.10;;;;;;5069443;28;20430;-41
2022/12/30 05:54:55;;;;;;;5.10;0.60;;;16.60;70.00;;;;;;5077549;28;20059;-42
2022/12/30 05:57:21;;;;;;;1.17;0.50;;;16.50;70.40;;;;;;5069803;28;20451;-41
2022/12/30 05:59:46;;;;;;;0.50;0.50;;;16.50;70.60;;;;;;5071925;28;20126;-42
2022/12/30 06:02:12;;;;;;;0.50;0.40;;;16.60;70.30;;;;;;5071350;28;20413;-41
2022/12/30 06:04:37;;;;;;;0.50;0.40;;;16.60;70.40;;;;;;5071480;28;20046;-42
2022/12/30 06:07:03;;;;;;;0.22;0.20;;;16.60;70.60;;;;;;5071398;28;20502;-43
2022/12/30 06:09:29;;;;;;;0.20;0.20;;;16.50;70.80;;;;;;5071637;28;20136;-43
2022/12/30 06:11:54;;;;;;;1.45;0.30;;;16.50;70.80;;;;;;5071202;28;20501;-42
2022/12/30 06:14:20;;;;;;;0.38;0.30;;;16.60;70.60;;;;;;5070503;28;20032;-34
2022/12/30 06:16:46;;;;;;;0.88;0.30;;;16.60;70.50;;;;;;5072281;28;20036;-42
2022/12/30 06:19:11;;;;;;;0.45;0.40;;;16.60;70.70;;;;;;5075053;28;20036;-43
2022/12/30 06:21:37;;;;;;;0.40;0.40;;;16.50;70.80;;;;;;5066825;28;20127;-42
2022/12/30 06:24:03;;;;;;;0.80;0.33;;;16.60;70.70;;;;;;4714317;28;10000241;-42
2022/12/30 06:26:28;;;;;;;0.30;0.30;;;16.50;70.70;;;;;;5064993;28;20073;-41
2022/12/30 06:28:54;;;;;;;0.35;0.30;;;16.50;70.90;;;;;;5065260;28;20090;-46
2022/12/30 06:31:19;;;;;;;2.85;0.32;;;16.40;70.80;;;;;;5065198;28;20064;-42
2022/12/30 06:33:45;;;;;;;0.30;0.30;;;16.50;70.80;;;;;;5063764;28;20055;-43
2022/12/30 06:36:11;;;;;;;1.55;0.30;;;16.60;70.80;;;;;;5066983;28;20047;-42
2022/12/30 06:38:37;;;;;;;0.40;0.40;;;16.60;70.50;;;;;;5072195;28;20542;-46
2022/12/30 06:41:02;;;;;;;0.65;0.40;;;16.60;70.50;;;;;;5068959;28;20052;-42
2022/12/30 06:43:28;;;;;;;0.45;0.25;;;16.60;70.50;;;;;;5063332;28;20056;-42
2022/12/30 06:45:54;;;;;;;0.30;0.20;;;16.60;70.40;;;;;;5068960;28;20060;-43
2022/12/30 06:48:20;;;;;;;0.40;0.40;;;16.70;70.30;;;;;;5072562;28;20045;-42
2022/12/30 06:50:45;;;;;;;0.40;0.30;;;16.70;70.10;;;;;;5064282;28;20572;-42
2022/12/30 06:53:11;;;;;;;0.68;0.20;;;16.70;70.20;;;;;;5074642;28;20127;-42
2022/12/30 06:55:36;;;;;;;0.28;0.28;;;16.70;70.00;;;;;;5071939;28;20056;-42
2022/12/30 06:58:03;;;;;;;0.43;0.40;;;16.70;70.10;;;;;;5072958;28;20032;-45
2022/12/30 07:00:28;;;;;;;0.50;0.30;;;16.70;70.10;;;;;;5070467;28;20185;-41
2022/12/30 07:02:54;;;;;;;0.20;0.20;;;16.70;69.90;;;;;;5067715;28;20557;-45
2022/12/30 07:05:20;;;;;;;0.28;0.20;;;16.80;70.10;;;;;;5073355;28;20159;-42
2022/12/30 07:07:45;;;;;;;0.30;0.30;;;16.70;70.20;;;;;;5074561;28;20036;-42
2022/12/30 07:10:11;;;;;;;0.28;0.28;;;16.60;70.00;;;;;;5069194;28;20390;-42
2022/12/30 07:12:36;;;;;;;0.40;0.38;;;16.70;70.30;;;;;;5071160;28;20075;-43
2022/12/30 07:15:02;;;;;;;0.73;0.30;;;16.70;70.00;;;;;;5071755;28;20117;-42
2022/12/30 07:17:28;;;;;;;0.32;0.30;;;16.70;69.90;;;;;;5070378;28;20079;-41
2022/12/30 07:19:53;;;;;;;0.20;0.20;;;16.70;69.90;;;;;;5074568;28;20479;-43
2022/12/30 07:22:19;;;;;;;0.38;0.30;;;16.70;70.00;;;;;;5072715;28;20040;-43
2022/12/30 07:24:45;;;;;;;0.20;0.20;;;16.70;69.80;;;;;;5072552;28;20048;-42
2022/12/30 07:27:11;;;;;;;0.30;0.30;;;16.70;70.00;;;;;;5072260;28;20139;-42
2022/12/30 07:29:38;;;;;;;0.35;0.35;;;16.80;69.80;;;;;;5068976;28;20036;-42
2022/12/30 07:32:05;;;;;;;0.52;0.30;;;16.80;69.70;;;;;;5069697;28;20059;-42
2022/12/30 07:34:30;;;;;;;0.10;0.10;;;16.90;69.50;;;;;;5072010;28;20547;-44
2022/12/30 07:36:56;;;;;;;0.20;0.20;;;16.90;69.30;;;;;;5061260;28;20128;-41
2022/12/30 07:39:22;;;;;;;0.38;0.38;;;16.90;69.10;;;;;;5068533;28;20080;-43
2022/12/30 07:41:48;;;;;;;0.10;0.10;;;17.10;68.80;;;;;;5065961;28;20455;-42
2022/12/30 07:44:13;;;;;;;0.50;0.20;;;17.10;69.60;;;;;;5076339;28;20564;-42
2022/12/30 07:46:39;;;;;;;0.30;0.20;;;16.90;69.10;;;;;;5071388;28;20083;-43
2022/12/30 07:49:04;;;;;;;0.20;0.20;;;16.80;69.40;;;;;;5072240;28;20048;-42
2022/12/30 07:51:30;;;;;;;0.20;0.20;;;16.90;69.60;;;;;;5072347;28;20124;-42
2022/12/30 07:53:58;;;;;;;1.13;0.20;;;16.80;69.50;;;;;;5068639;28;20363;-42
2022/12/30 07:56:23;;;;;;;0.20;0.20;;;16.90;69.60;;;;;;5076288;28;20043;-42
2022/12/30 07:58:51;;;;;;;0.20;0.20;;;16.90;69.40;;;;;;5072205;28;20101;-42
2022/12/30 08:01:17;;;;;;;0.20;0.10;;;16.80;69.40;;;;;;5054922;28;20045;-43
2022/12/30 08:03:43;;;;;;;0.28;0.10;;;16.90;69.60;;;;;;5071867;28;20047;-43
2022/12/30 08:06:13;;;;;;;0.20;0.20;;;16.80;69.50;;;;;;5075621;28;20150;-42
2022/12/30 08:08:39;;;;;;;0.30;0.30;;;16.90;69.50;;;;;;5074859;28;20047;-42
2022/12/30 08:11:05;;;;;;;0.40;0.20;;;16.80;69.70;;;;;;5076563;28;20040;-42
2022/12/30 08:13:31;;;;;;;0.13;0.13;;;16.80;69.70;;;;;;5075615;28;20040;-41
2022/12/30 08:15:57;;;;;;;0.30;0.30;;;16.70;69.90;;;;;;5074003;28;20064;-42
2022/12/30 08:18:23;;;;;;;0.15;0.10;;;16.70;70.10;;;;;;5073220;28;20517;-41
2022/12/30 08:20:48;;;;;;;0.30;0.30;;;16.60;70.10;;;;;;5073619;28;20047;-42
2022/12/30 08:23:14;;;;;;;0.35;0.17;;;16.60;70.40;;;;;;5076566;28;20089;-43
2022/12/30 08:25:39;;;;;;;0.30;0.30;;;16.60;70.50;;;;;;5072986;28;20041;-41
2022/12/30 08:28:05;;;;;;;0.10;0.10;;;16.50;70.60;;;;;;5078072;28;20044;-42
2022/12/30 08:30:31;;;;;;;0.10;0.10;;;16.50;70.70;;;;;;5073153;28;20033;-41
2022/12/30 08:32:56;;;;;;;0.10;0.10;;;16.50;70.80;;;;;;5074275;28;20059;-43
2022/12/30 08:35:22;;;;;;;0.73;0.50;;;16.50;70.80;;;;;;5076402;28;20043;-42
2022/12/30 08:37:47;;;;;;;0.20;0.10;;;16.40;70.90;;;;;;5074983;28;20448;-41
2022/12/30 08:40:13;;;;;;;0.30;0.20;;;16.40;70.90;;;;;;5074146;28;20059;-42
2022/12/30 08:42:38;;;;;;;0.22;0.13;;;16.60;70.70;;;;;;5078073;28;20126;-41
2022/12/30 08:45:05;;;;;;;0.10;0.10;;;16.50;71.40;;;;;;5075783;28;20044;-42
2022/12/30 08:47:30;;;;;;;0.20;0.20;;;16.60;70.30;;;;;;5077701;28;20048;-41
2022/12/30 08:49:56;;;;;;;0.30;0.13;;;16.50;70.60;;;;;;5074636;28;20434;-41
2022/12/30 08:52:22;;;;;;;0.20;0.20;;;16.60;70.50;;;;;;5076390;28;20072;-42
2022/12/30 08:54:47;;;;;;;0.25;0.25;;;16.60;70.30;;;;;;5071958;28;20036;-42
2022/12/30 08:57:13;;;;;;;0.10;0.10;;;16.60;70.30;;;;;;5068401;28;20500;-42
2022/12/30 08:59:39;;;;;;;0.10;0.10;;;16.70;69.90;;;;;;5071304;28;20044;-41
2022/12/30 09:02:05;;;;;;;0.20;0.20;;;16.70;69.80;;;;;;5072202;28;20093;-43
2022/12/30 09:04:31;;;;;;;0.20;0.10;;;16.70;69.70;;;;;;5072260;28;20043;-40
2022/12/30 09:06:56;;;;;;;0.10;0.10;;;16.80;69.60;;;;;;5074010;28;20040;-42
2022/12/30 09:09:22;;;;;;;0.17;0.10;;;16.90;69.30;;;;;;5072467;28;20504;-41
2022/12/30 09:11:47;;;;;;;0.63;0.20;;;16.80;69.50;;;;;;5071002;28;20105;-42
2022/12/30 09:14:14;;;;;;;0.30;0.17;;;16.80;69.40;;;;;;5074959;28;20032;-40
2022/12/30 09:16:40;;;;;;;0.10;0.10;;;16.80;69.10;;;;;;5075112;28;20048;-45
2022/12/30 09:19:05;;;;;;;0.25;0.10;;;16.80;69.40;;;;;;5074435;28;20420;-42
2022/12/30 09:21:31;;;;;;;0.08;0.08;;;16.80;69.40;;;;;;5074479;28;20480;-37
2022/12/30 09:23:56;;;;;;;0.15;0.15;;;16.90;69.60;;;;;;5071711;28;20024;-42
2022/12/30 09:26:23;;;;;;;0.10;0.10;;;16.80;69.20;;;;;;5073529;28;20036;-42
2022/12/30 09:28:49;;;;;;;0.25;0.20;;;16.80;69.30;;;;;;5070737;28;20112;-42
2022/12/30 09:31:14;;;;;;;0.10;0.10;;;16.80;69.20;;;;;;5074514;28;20124;-42
2022/12/30 09:33:40;;;;;;;0.20;0.20;;;16.90;69.70;;;;;;5074829;28;20033;-41
2022/12/30 09:36:06;;;;;;;0.00;0.00;;;16.90;68.90;;;;;;5071245;28;20135;-41
2022/12/30 09:38:32;;;;;;;0.32;0.10;;;16.90;69.10;;;;;;5074955;28;20066;-35
2022/12/30 09:41:08;;;;;;;0.05;0.05;;;16.80;69.10;;;;;;5075086;28;20032;-42
2022/12/30 09:43:43;;;;;;;0.20;0.20;;;16.90;68.90;;;;;;5053170;28;20091;-41
2022/12/30 09:46:15;;;;;;;0.10;0.10;;;16.90;69.20;;;;;;5065479;28;20071;-44
2022/12/30 09:48:50;;;;;;;0.17;0.17;;;16.90;69.10;;;;;;5064836;28;20051;-42
2022/12/30 09:51:21;;;;;;;0.20;0.10;;;16.90;69.10;;;;;;5071121;28;20131;-42
2022/12/30 09:53:54;;;;;;;0.13;0.13;;;17.00;68.80;;;;;;5069970;28;20032;-41
2022/12/30 09:56:37;;;;;;;0.20;0.20;;;16.90;69.00;;;;;;5070965;28;20040;-42
2022/12/30 09:59:17;;;;;;;0.30;0.17;;;16.90;69.00;;;;;;5065195;28;20040;-42
2022/12/30 10:01:44;;;;;;;0.45;0.28;;;16.80;69.10;;;;;;5071988;28;20143;-41
2022/12/30 10:04:16;;;;;;;0.20;0.20;;;16.80;70.00;;;;;;5082513;28;20040;-42
2022/12/30 10:06:56;;;;;;;0.10;0.10;;;16.70;69.40;;;;;;5070772;28;20160;-42
2022/12/30 10:09:38;;;;;;;0.17;0.10;;;16.80;69.60;;;;;;5080713;28;20333;-41
2022/12/30 10:12:06;;;;;;;0.10;0.10;;;16.70;69.50;;;;;;5059947;28;20040;-42
2022/12/30 10:15:09;;;;;;;0.10;0.10;;;16.80;69.70;;;;;;5072186;28;20500;-43
2022/12/30 10:17:56;;;;;;;0.10;0.10;;;16.80;69.50;;;;;;5072245;28;20130;-43
2022/12/30 10:20:43;;;;;;;0.20;0.20;;;16.90;69.40;;;;;;5068421;28;20043;-43
2022/12/30 10:23:15;;;;;;;0.13;0.10;;;16.80;69.30;;;;;;5067322;28;20086;-46
2022/12/30 10:25:49;;;;;;;0.10;0.10;;;16.80;69.40;;;;;;5080852;28;20032;-41
2022/12/30 10:28:15;;;;;;;0.30;0.25;;;16.80;69.40;;;;;;5072467;28;20048;-42
2022/12/30 10:30:43;;;;;;;0.43;0.20;;;16.80;69.20;;;;;;5079735;28;20590;-41
2022/12/30 10:33:16;;;;;;;0.10;0.10;;;16.90;69.30;;;;;;5064614;28;20044;-41
2022/12/30 10:35:42;;;;;;;0.10;0.10;;;16.90;69.00;;;;;;5050225;28;20097;-41
2022/12/30 10:38:13;;;;;;;0.10;0.10;;;16.80;69.30;;;;;;5066476;28;20405;-42
2022/12/30 10:40:52;;;;;;;0.20;0.08;;;16.80;69.30;;;;;;5067231;28;20041;-41
2022/12/30 10:43:27;;;;;;;0.10;0.10;;;16.80;69.30;;;;;;5060413;28;20052;-42
2022/12/30 10:46:17;;;;;;;0.00;0.00;;;16.80;69.20;;;;;;5063276;28;20385;-42
2022/12/30 10:49:13;;;;;;;0.10;0.10;;;16.80;69.50;;;;;;5069619;28;20036;-43
2022/12/30 10:51:39;;;;;;;0.10;0.10;;;16.70;69.60;;;;;;5048853;28;20052;-41
2022/12/30 10:54:05;;;;;;;0.10;0.10;;;16.70;69.50;;;;;;5064142;28;20528;-45
2022/12/30 10:56:31;;;;;;;0.20;0.10;;;16.70;69.60;;;;;;5074274;28;20123;-42
2022/12/30 10:59:10;;;;;;;0.20;0.10;;;16.80;69.70;;;;;;5058392;28;20045;-42
2022/12/30 11:01:36;;;;;;;0.47;0.10;;;16.80;69.60;;;;;;5066372;28;20191;-41
2022/12/30 11:04:01;;;;;;;0.20;0.10;;;16.80;69.20;;;;;;5069119;28;20856;-42
2022/12/30 11:06:37;;;;;;;0.40;0.10;;;16.80;69.30;;;;;;5076823;28;20024;-42
2022/12/30 11:09:14;;;;;;;0.10;0.10;;;16.80;69.40;;;;;;5063947;28;20033;-41
2022/12/30 11:14:42;;;;;;;0.10;0.10;;;16.80;69.60;;;;;;5071910;28;20503;-41
2022/12/30 11:17:23;;;;;;;0.10;0.10;;;16.80;69.30;;;;;;5072415;28;20035;-42
2022/12/30 11:20:19;;;;;;;0.10;0.10;;;16.80;69.40;;;;;;5060354;28;20123;-41
2022/12/30 11:22:51;;;;;;;0.08;0.08;;;16.70;69.50;;;;;;5068871;28;20406;-41
2022/12/30 11:25:29;;;;;;;0.10;0.10;;;16.70;69.60;;;;;;5082299;28;20074;-42
2022/12/30 11:27:57;;;;;;;0.10;0.10;;;16.60;70.00;;;;;;5073977;28;20089;-42
2022/12/30 11:30:24;;;;;;;0.30;0.30;;;16.50;70.60;;;;;;5086002;28;20035;-42
2022/12/30 11:32:49;;;;;;;0.32;0.00;;;16.50;70.30;;;;;;5074295;28;20036;-41
2022/12/30 11:35:38;;;;;;;0.10;0.10;;;16.50;70.40;;;;;;5066893;28;20047;-42
2022/12/30 11:38:24;;;;;;;0.00;0.00;;;16.50;70.50;;;;;;5078689;28;20409;-42
2022/12/30 11:40:50;;;;;;;0.35;0.10;;;16.50;70.60;;;;;;5075487;28;20049;-44
2022/12/30 11:43:17;;;;;;;0.13;0.10;;;16.50;70.70;;;;;;5068321;28;20121;-42
2022/12/30 11:45:49;;;;;;;0.00;0.00;;;16.50;70.50;;;;;;5048825;28;20044;-40
2022/12/30 11:48:26;;;;;;;0.10;0.10;;;16.50;70.50;;;;;;5049257;28;20048;-41
2022/12/30 11:50:52;;;;;;;0.00;0.00;;;16.60;70.30;;;;;;5033284;28;20045;-41
2022/12/30 11:53:26;;;;;;;1.45;0.05;;;16.50;70.50;;;;;;5050595;28;20040;-42
2022/12/30 11:55:52;;;;;;;0.03;0.03;;;16.50;70.70;;;;;;5036007;28;20493;-41
2022/12/30 11:58:17;;;;;;;0.20;0.10;;;16.50;70.70;;;;;;5049361;28;20040;-42
2022/12/30 12:00:43;;;;;;;2.08;0.20;;;16.60;70.50;;;;;;5032379;28;20028;-41
2022/12/30 12:03:15;;;;;;;0.20;0.17;;;16.50;70.60;;;;;;5052901;28;20568;-42
2022/12/30 12:05:43;;;;;;;0.28;0.20;;;16.70;70.10;;;;;;5053214;28;20087;-41
2022/12/30 12:08:17;;;;;;;0.13;0.10;;;16.70;70.20;;;;;;5049003;28;20029;-44
2022/12/30 12:10:43;;;;;;;0.10;0.10;;;16.50;70.80;;;;;;5048219;28;20041;-41
2022/12/30 12:13:27;;;;;;;0.25;0.20;;;16.50;71.30;;;;;;5055255;28;20107;-42
2022/12/30 12:15:53;;;;;;;;;;;16.50;71.40;;;;;;5047232;28;20146;-42
2022/12/30 12:18:42;;;;;;;0.15;0.15;;;16.50;71.60;;;;;;5049546;28;20374;-42
2022/12/30 12:21:27;;;;;;;0.00;0.00;;;16.50;71.60;;;;;;5046715;28;20044;-45
2022/12/30 12:24:19;;;;;;;0.20;0.20;;;16.40;71.50;;;;;;5048045;28;20033;-41
2022/12/30 12:26:56;;;;;;;0.20;0.10;;;16.40;71.40;;;;;;5036376;28;20128;-42
2022/12/30 12:29:21;;;;;;;0.10;0.10;;;16.40;71.80;;;;;;5044003;28;20134;-43
2022/12/30 12:31:57;;;;;;;0.20;0.20;;;16.40;71.60;;;;;;5051620;28;20075;-40
2022/12/30 12:34:23;;;;;;;0.10;0.10;;;16.40;71.50;;;;;;5046975;28;20037;-43
2022/12/30 12:37:00;;;;;;;0.10;0.10;;;16.40;71.70;;;;;;5042812;28;21831;-46
2022/12/30 12:39:37;;;;;;;0.17;0.10;;;16.40;71.30;;;;;;5047330;28;20711;-43
2022/12/30 12:42:05;;;;;;;0.30;0.20;;;16.40;71.50;;;;;;5047338;28;20062;-43
2022/12/30 12:44:52;;;;;;;0.15;0.15;;;16.40;71.40;;;;;;5070577;28;20053;-43
2022/12/30 12:47:48;;;;;;;0.13;0.13;;;16.40;71.50;;;;;;5073099;28;20034;-43
2022/12/30 12:50:23;;;;;;;0.10;0.10;;;16.40;71.50;;;;;;5068744;28;20035;-43
2022/12/30 12:53:26;;;;;;;0.10;0.10;;;16.40;71.50;;;;;;5073578;28;20037;-44
2022/12/30 12:56:29;;;;;;;0.10;0.10;;;16.40;71.70;;;;;;5075690;28;20489;-43
2022/12/30 12:59:16;;;;;;;0.10;0.10;;;16.40;71.90;;;;;;5073729;28;20083;-42
2022/12/30 13:02:07;;;;;;;0.00;0.00;;;16.40;72.00;;;;;;5072141;28;20367;-42
2022/12/30 13:04:40;;;;;;;0.25;0.10;;;16.40;71.90;;;;;;5048809;28;21993;-42
2022/12/30 13:07:38;;;;;;;0.00;0.00;;;16.40;71.90;;;;;;5062391;28;20474;-42
2022/12/30 13:10:20;;;;;;;0.13;0.10;;;16.40;71.50;;;;;;5055689;28;20052;-42
2022/12/30 13:13:26;;;;;;;0.10;0.10;;;16.40;71.30;;;;;;5073539;28;20043;-42
2022/12/30 13:16:03;;;;;;;0.10;0.10;;;16.40;71.30;;;;;;5060490;28;20088;-42
2022/12/30 13:18:29;;;;;;;0.20;0.10;;;16.50;71.20;;;;;;5036699;28;20037;-42
2022/12/30 13:20:56;;;;;;;0.05;0.05;;;16.50;71.00;;;;;;5062886;28;20039;-42
2022/12/30 13:23:27;;;;;;;0.10;0.10;;;16.60;71.00;;;;;;5057930;28;20120;-42
2022/12/30 13:25:58;;;;;;;0.10;0.10;;;16.50;71.10;;;;;;5067188;28;20061;-42
2022/12/30 13:28:26;;;;;;;0.20;0.10;;;16.50;71.00;;;;;;5077472;28;20093;-42
2022/12/30 13:30:52;;;;;;;0.30;0.10;;;16.50;70.90;;;;;;5073986;28;20409;-42
2022/12/30 13:33:29;;;;;;;0.10;0.00;;;16.50;70.90;;;;;;5067355;28;20048;-43
2022/12/30 13:36:07;;;;;;;0.17;0.17;;;16.70;71.40;;;;;;5060073;28;20854;-36
2022/12/30 13:38:58;;;;;;;0.47;0.10;;;16.70;71.00;;;;;;5072499;28;20392;-39
2022/12/30 13:41:40;;;;;;;0.20;0.20;;;16.70;71.00;;;;;;5056499;28;20572;-33
2022/12/30 13:44:14;;;;;;;0.10;0.10;;;16.70;71.40;;;;;;5058511;28;20056;-38
2022/12/30 13:46:45;;;;;;;0.13;0.10;;;16.70;71.40;;;;;;5077405;28;20405;-43
2022/12/30 13:49:23;;;;;;;0.10;0.10;;;16.60;71.60;;;;;;5080932;28;20514;-43
2022/12/30 13:52:06;;;;;;;0.57;0.20;;;16.60;72.10;;;;;;5070308;28;20067;-45
2022/12/30 13:54:32;;;;;;;0.10;0.10;;;16.70;71.70;;;;;;5081840;28;20048;-46
2022/12/30 13:56:59;;;;;;;0.45;0.20;;;16.80;71.50;;;;;;5064989;28;20492;-46
2022/12/30 13:59:38;;;;;;;0.05;0.05;;;16.80;70.90;;;;;;5064288;28;20059;-45
2022/12/30 14:02:18;;;;;;;0.10;0.10;;;16.70;71.30;;;;;;5070307;28;20075;-47
2022/12/30 14:04:48;;;;;;;1.00;0.05;;;16.70;71.70;;;;;;5068997;28;20048;-46